Monday, December 18, 2017, 3:34 PM EST

KLKU, Louisa, Louisa County Airport/freeman Field

Location: Louisa, VA, United States Lat: 38.01
Local Time: 3:34 PM EST (20:34 GMT) Lon: -77.97
Time Zone: US/Eastern Elev: 492 ft

Show me the last for .
Show Decoded

2017-12-18 15:15 METAR KLKU 182015Z AUTO 24006KT 10SM OVC050 15/05 A3005 RMK AO2 T01530051 =
2017-12-18 14:55 METAR KLKU 181955Z AUTO 25006KT 10SM BKN050 15/05 A3004 RMK AO2 T01490049 =
2017-12-18 14:35 METAR KLKU 181935Z AUTO 24006KT 10SM SCT045 15/05 A3005 RMK AO2 T01500053 =
2017-12-18 14:15 METAR KLKU 181915Z AUTO 24007G15KT 10SM SCT041 16/05 A3005 RMK AO2 T01580051 =
2017-12-18 13:55 METAR KLKU 181855Z AUTO 22007KT 180V260 10SM SCT041 16/05 A3005 RMK AO2
                 T01560054 =
2017-12-18 13:35 METAR KLKU 181835Z AUTO 22007KT 10SM SCT041 15/05 A3005 RMK AO2 T01510052 =
2017-12-18 13:15 METAR KLKU 181815Z AUTO 21006KT 10SM CLR 15/05 A3007 RMK AO2 T01460050 =
2017-12-18 12:55 METAR KLKU 181755Z AUTO 23007KT 10SM CLR 14/05 A3008 RMK AO2 T01380049 10141
                 21016 =
2017-12-18 12:35 METAR KLKU 181735Z AUTO 22006KT 10SM CLR 14/05 A3009 RMK AO2 T01380048 =
2017-12-18 12:15 METAR KLKU 181715Z AUTO 22006KT 10SM SCT042 13/05 A3010 RMK AO2 T01320045 =
2017-12-18 11:55 METAR KLKU 181655Z AUTO 22006KT 10SM SCT042 12/04 A3012 RMK AO2 T01210040 =
2017-12-18 11:35 METAR KLKU 181635Z AUTO 21006KT 10SM CLR 11/03 A3013 RMK AO2 T01130034 =
2017-12-18 11:15 METAR KLKU 181615Z AUTO 23005KT 10SM CLR 11/03 A3015 RMK AO2 T01070025 =
2017-12-18 10:55 METAR KLKU 181555Z AUTO 25004KT 10SM CLR 11/02 A3015 RMK AO2 T01050022 =
2017-12-18 10:35 METAR KLKU 181535Z AUTO 19003KT 10SM CLR 10/02 A3016 RMK AO2 T00960017 =
2017-12-18 10:15 METAR KLKU 181515Z AUTO 19003KT 10SM SCT041 09/02 A3016 RMK AO2 T00930015 =
2017-12-18 09:55 METAR KLKU 181455Z AUTO 00000KT 10SM SCT041 08/01 A3017 RMK AO2 T00820015 =
2017-12-18 09:35 METAR KLKU 181435Z AUTO 26003KT 10SM CLR 08/02 A3018 RMK AO2 T00770025 =
2017-12-18 09:15 METAR KLKU 181415Z AUTO 00000KT 10SM CLR 06/02 A3017 RMK AO2 T00570016 =
2017-12-18 08:55 METAR KLKU 181355Z AUTO 00000KT 10SM CLR 03/01 A3017 RMK AO2 T00280012 =
2017-12-18 08:35 METAR KLKU 181335Z AUTO 00000KT 10SM CLR 03/01 A3016 RMK AO2 T00270013 =
2017-12-18 08:15 METAR KLKU 181315Z AUTO 26004KT 10SM CLR 00/M01 A3017 RMK AO2 T10021010 =
2017-12-18 07:55 METAR KLKU 181255Z AUTO 25004KT 5SM BR CLR M01/M02 A3017 RMK AO2 T10141017 =
2017-12-18 07:35 METAR KLKU 181235Z AUTO 27003KT 5SM BR CLR M01/M01 A3017 RMK AO2 T10091012 =
2017-12-18 07:15 METAR KLKU 181215Z AUTO 00000KT 7SM BR CLR M01/M02 A3017 RMK AO2 T10151019 =
2017-12-18 06:55 METAR KLKU 181155Z AUTO 26003KT 7SM CLR M01/M01 A3017 RMK AO2 T10081013 10049
                 21008 =
2017-12-18 06:35 METAR KLKU 181135Z AUTO 25004KT 10SM CLR 00/M01 A3017 RMK AO2 T00021008 =
2017-12-18 06:15 METAR KLKU 181115Z AUTO 24004KT 10SM CLR 01/00 A3016 RMK AO2 T00051003 =
2017-12-18 05:55 METAR KLKU 181055Z AUTO 24004KT 10SM CLR 00/M01 A3016 RMK AO2 T00001007 =
2017-12-18 05:35 METAR KLKU 181035Z AUTO 24003KT 10SM CLR 02/00 A3016 RMK AO2 T00180001 =
2017-12-18 05:15 METAR KLKU 181015Z AUTO 24003KT 10SM CLR 03/00 A3015 RMK AO2 T00260003 =
2017-12-18 04:55 METAR KLKU 180955Z AUTO 22004KT 10SM CLR 02/00 A3015 RMK AO2 T00250003 =
2017-12-18 04:35 METAR KLKU 180935Z AUTO 22005KT 10SM CLR 01/00 A3015 RMK AO2 T00091003 =
2017-12-18 04:15 METAR KLKU 180915Z AUTO 23003KT 10SM CLR 01/00 A3015 RMK AO2 T00071002 =
2017-12-18 03:55 METAR KLKU 180855Z AUTO 23004KT 10SM CLR 00/M01 A3015 RMK AO2 T10051011 =
2017-12-18 03:35 METAR KLKU 180835Z AUTO 23003KT 10SM CLR 00/M01 A3015 RMK AO2 T10011009 =
2017-12-18 03:15 METAR KLKU 180815Z AUTO 22003KT 10SM CLR 01/00 A3015 RMK AO2 T00071002 =
2017-12-18 02:55 METAR KLKU 180755Z AUTO 00000KT 10SM SCT055 02/00 A3015 RMK AO2 T00160003 =
2017-12-18 02:35 METAR KLKU 180735Z AUTO 00000KT 10SM SCT055 03/00 A3015 RMK AO2 T00300004 =
2017-12-18 02:15 METAR KLKU 180715Z AUTO 00000KT 10SM BKN065 04/01 A3015 RMK AO2 T00450007 =
2017-12-18 01:55 METAR KLKU 180655Z AUTO 00000KT 10SM OVC065 05/01 A3016 RMK AO2 T00480008 =
2017-12-18 01:35 METAR KLKU 180635Z AUTO 00000KT 10SM SCT048 OVC065 05/01 A3015 RMK AO2 T00470008
                 =
2017-12-18 01:15 METAR KLKU 180615Z AUTO 20004KT 10SM BKN050 OVC075 05/01 A3016 RMK AO2 T00470008
                 =
2017-12-18 00:55 METAR KLKU 180555Z AUTO 20003KT 10SM SCT048 OVC075 05/01 A3016 RMK AO2 T00490009
                 10056 20042 =
2017-12-18 00:35 METAR KLKU 180535Z AUTO 00000KT 10SM BKN048 OVC075 05/01 A3017 RMK AO2 T00510009
                 =
2017-12-18 00:15 METAR KLKU 180515Z AUTO 19003KT 10SM OVC048 05/01 A3018 RMK AO2 T00510009 =
2017-12-17 23:55 METAR KLKU 180455Z AUTO 20003KT 10SM OVC048 05/01 A3018 RMK AO2 T00510008 =
2017-12-17 23:35 METAR KLKU 180435Z AUTO 00000KT 10SM OVC050 05/01 A3019 RMK AO2 T00510008 =
2017-12-17 23:15 METAR KLKU 180415Z AUTO 22003KT 10SM OVC050 05/01 A3020 RMK AO2 T00510008 =
2017-12-17 22:55 METAR KLKU 180355Z AUTO 00000KT 10SM OVC050 05/01 A3019 RMK AO2 T00510007 =
2017-12-17 22:35 METAR KLKU 180335Z AUTO 21003KT 10SM OVC050 05/01 A3019 RMK AO2 T00510007 =
2017-12-17 22:15 METAR KLKU 180315Z AUTO 00000KT 10SM OVC050 05/01 A3020 RMK AO2 T00510007 =
2017-12-17 21:55 METAR KLKU 180255Z AUTO 21003KT 10SM OVC050 05/01 A3020 RMK AO2 T00520006 =
2017-12-17 21:40 METAR KLKU 180240Z AUTO 20004KT 10SM OVC050 05/01 A3019 RMK AO2 T00520007 =
2017-12-17 21:15 METAR KLKU 180215Z AUTO 19004KT 10SM OVC060 05/01 A3020 RMK AO2 T00530007 =
2017-12-17 20:50 METAR KLKU 180150Z AUTO 19004KT 10SM OVC060 05/01 A3020 RMK AO2 T00520006 =
2017-12-17 20:35 METAR KLKU 180135Z AUTO 18004KT 10SM OVC060 05/01 A3021 RMK AO2 T00520007 =
2017-12-17 20:15 METAR KLKU 180115Z AUTO 15003KT 10SM OVC070 05/01 A3021 RMK AO2 T00510007 =
2017-12-17 19:55 METAR KLKU 180055Z AUTO 00000KT 10SM OVC070 05/01 A3021 RMK AO2 T00520009 =
2017-12-17 19:35 METAR KLKU 180035Z AUTO 17003KT 10SM OVC080 04/02 A3021 RMK AO2 T00450021 =
2017-12-17 19:15 METAR KLKU 180015Z AUTO 00000KT 10SM OVC080 05/01 A3022 RMK AO2 T00530008 =
2017-12-17 18:55 METAR KLKU 172355Z AUTO 17004KT 10SM -RA OVC080 05/01 A3023 RMK AO2 T00530010
                 10097 20048 401021035 =
2017-12-17 18:35 METAR KLKU 172335Z AUTO 21003KT 10SM -RA OVC090 05/02 A3024 RMK AO2 T00500018 =
2017-12-17 18:15 METAR KLKU 172315Z AUTO 00000KT 10SM -RA SCT060 SCT070 OVC090 05/02 A3024 RMK
                 AO2 T00520018 =
2017-12-17 17:55 METAR KLKU 172255Z AUTO 00000KT 10SM -RA SCT060 BKN070 OVC080 07/M01 A3024 RMK
                 AO2 T00671011 =
2017-12-17 17:35 METAR KLKU 172235Z AUTO 24003KT 10SM -RA SCT055 SCT070 OVC090 07/M01 A3025 RMK
                 AO2 T00721014 =
2017-12-17 17:15 METAR KLKU 172215Z AUTO 21003KT 10SM SCT080 OVC090 07/M01 A3023 RMK AO2
                 T00741014 =
2017-12-17 16:55 METAR KLKU 172155Z AUTO 22003KT 10SM OVC090 08/M02 A3022 RMK AO2 T00791020 =
2017-12-17 16:35 METAR KLKU 172135Z AUTO 18005KT 10SM SCT065 SCT075 OVC090 08/M02 A3021 RMK AO2
                 T00791016 =
2017-12-17 16:15 METAR KLKU 172115Z AUTO 19003KT 10SM OVC100 08/M01 A3021 RMK AO2 T00821013 =
2017-12-17 15:55 METAR KLKU 172055Z AUTO 00000KT 10SM OVC100 09/M02 A3020 RMK AO2 T00881018 =
2017-12-17 15:35 METAR KLKU 172035Z AUTO 16003KT 10SM OVC110 09/M02 A3019 RMK AO2 =

Support USWX by starting your Amazon purchase here.